Terminal Aerodrome Forecast
Issued by NWS

Home | Current Version | Previous Version | Text Only | Print | Product List | Glossary On
Versions: 1 2 3 4 5 6 7 8 9 10 11 12
000
FTUS42 TJSJ 282300
TAFIST
TAF
TIST 282335Z 2900/2924 10005KT P6SM VCSH FEW030
     FM291300 10012KT P6SM SCT025
     FM292200 06008KT P6SM VCSH SCT025 SCT035=

USA.gov is the U.S. government's official web portal to all federal, state and local government web resources and services.